createdAt,value
2022-07-28T00:00:43.165Z,1.00
2022-07-28T00:03:09.846Z,1.02
2022-07-28T00:05:36.371Z,1.08
2022-07-28T00:08:03.079Z,1.10
2022-07-28T00:10:29.617Z,0.90
2022-07-28T00:12:56.186Z,1.00
2022-07-28T00:15:22.702Z,1.10
2022-07-28T00:17:51.132Z,1.08
2022-07-28T00:20:17.658Z,1.00
2022-07-28T00:22:44.873Z,1.00
2022-07-28T00:25:11.979Z,1.00
2022-07-28T00:27:38.481Z,1.30
2022-07-28T00:30:05.423Z,1.05
2022-07-28T00:32:32.078Z,1.02
2022-07-28T00:35:00.585Z,1.02
2022-07-28T00:37:28.995Z,0.82
2022-07-28T00:39:56.103Z,1.13
2022-07-28T00:42:22.714Z,1.10
2022-07-28T00:44:49.321Z,0.82
2022-07-28T00:47:15.922Z,1.17
2022-07-28T00:49:44.695Z,1.20
2022-07-28T00:52:12.855Z,1.10
2022-07-28T00:54:39.364Z,1.10
2022-07-28T00:57:05.866Z,1.40
2022-07-28T00:59:33.661Z,1.00
2022-07-28T01:02:01.034Z,1.65
2022-07-28T01:04:27.793Z,1.17
2022-07-28T01:07:02.521Z,0.93
2022-07-28T01:09:38.801Z,0.90
2022-07-28T01:12:09.106Z,1.00
2022-07-28T01:14:38.305Z,1.00
2022-07-28T01:17:08.294Z,0.90
2022-07-28T01:19:39.711Z,0.88
2022-07-28T01:22:09.599Z,1.20
2022-07-28T01:24:41.132Z,1.05
2022-07-28T01:27:09.608Z,1.00
2022-07-28T01:29:59.875Z,1.00
2022-07-28T01:32:29.914Z,1.00
2022-07-28T01:34:58.862Z,1.45
2022-07-28T01:37:26.460Z,1.17
2022-07-28T01:39:55.897Z,0.98
2022-07-28T01:42:24.389Z,0.90
2022-07-28T01:44:53.730Z,1.13
2022-07-28T01:47:21.815Z,1.00
2022-07-28T01:49:50.076Z,1.10
2022-07-28T01:52:17.119Z,1.13
2022-07-28T01:54:45.344Z,1.13
2022-07-28T01:57:14.594Z,0.80
2022-07-28T01:59:42.744Z,0.95
2022-07-28T02:02:10.671Z,1.00
2022-07-28T02:04:38.755Z,1.00
2022-07-28T02:07:07.873Z,1.30
2022-07-28T02:09:35.215Z,1.10
2022-07-28T02:12:02.875Z,1.20
2022-07-28T02:14:29.724Z,1.00
2022-07-28T02:16:56.574Z,1.00
2022-07-28T02:19:23.535Z,1.40
2022-07-28T02:21:50.893Z,0.90
2022-07-28T02:24:19.999Z,1.10
2022-07-28T02:26:47.519Z,1.35
2022-07-28T02:29:33.439Z,1.00
2022-07-28T02:32:02.887Z,0.88
2022-07-28T02:34:30.409Z,0.82
2022-07-28T02:36:58.871Z,1.00
2022-07-28T02:39:29.722Z,1.30
2022-07-28T02:42:00.802Z,0.88
2022-07-28T02:44:30.684Z,1.08
2022-07-28T02:46:58.094Z,1.25
2022-07-28T02:49:28.497Z,1.00
2022-07-28T02:51:55.257Z,1.17
2022-07-28T02:54:23.438Z,1.00
2022-07-28T02:56:54.256Z,1.10
2022-07-28T02:59:21.297Z,1.20
2022-07-28T03:01:48.113Z,1.20
2022-07-28T03:04:15.728Z,1.00
2022-07-28T03:06:42.552Z,1.00
2022-07-28T03:09:09.215Z,1.20
2022-07-28T03:11:35.713Z,1.00
2022-07-28T03:14:03.566Z,1.10
2022-07-28T03:16:30.118Z,1.05
2022-07-28T03:18:56.668Z,1.20
2022-07-28T03:21:23.171Z,1.08
2022-07-28T03:23:50.218Z,1.00
2022-07-28T03:26:19.560Z,1.20
2022-07-28T03:28:46.861Z,1.38
2022-07-28T03:31:15.729Z,1.27
2022-07-28T03:33:42.317Z,1.17
2022-07-28T03:36:11.844Z,1.30
2022-07-28T03:38:41.156Z,1.38
2022-07-28T03:41:08.554Z,1.30
2022-07-28T03:43:35.322Z,1.10
2022-07-28T03:46:01.980Z,1.33
2022-07-28T03:48:30.667Z,1.23
2022-07-28T03:50:57.545Z,1.30
2022-07-28T03:53:25.409Z,1.48
2022-07-28T03:55:52.348Z,1.10
2022-07-28T03:58:18.909Z,1.20
2022-07-28T04:00:45.457Z,1.08
2022-07-28T04:03:35.841Z,1.00
2022-07-28T04:05:59.981Z,1.63
2022-07-28T04:08:26.509Z,1.20
2022-07-28T04:10:53.783Z,1.10
2022-07-28T04:13:20.597Z,1.10
2022-07-28T04:15:47.193Z,1.33
2022-07-28T04:18:13.686Z,1.00
2022-07-28T04:20:40.241Z,1.48
2022-07-28T04:23:08.114Z,1.23
2022-07-28T04:25:34.757Z,1.20
2022-07-28T04:28:02.497Z,1.30
2022-07-28T04:30:32.084Z,1.00
2022-07-28T04:32:58.849Z,1.10
2022-07-28T04:35:27.220Z,1.20
2022-07-28T04:37:58.660Z,1.13
2022-07-28T04:40:27.199Z,1.10
2022-07-28T04:42:53.944Z,1.58
2022-07-28T04:45:20.515Z,1.15
2022-07-28T04:47:47.012Z,1.30
2022-07-28T04:50:19.030Z,1.00
2022-07-28T04:52:49.181Z,1.52
2022-07-28T04:55:16.185Z,1.20
2022-07-28T04:57:44.378Z,1.70
2022-07-28T05:00:13.490Z,1.50
2022-07-28T05:02:40.098Z,1.30
2022-07-28T05:05:07.279Z,1.30
2022-07-28T05:07:33.813Z,1.27
2022-07-28T05:10:00.318Z,1.50
2022-07-28T05:12:26.800Z,1.30
2022-07-28T05:14:54.660Z,1.50
2022-07-28T05:17:21.131Z,1.27
2022-07-28T05:19:47.821Z,1.25
2022-07-28T05:22:14.323Z,1.40
2022-07-28T05:24:40.810Z,1.33
2022-07-28T05:27:07.371Z,1.73
2022-07-28T05:29:35.145Z,1.30
2022-07-28T05:32:16.535Z,1.47
2022-07-28T05:34:44.375Z,1.60
2022-07-28T05:37:10.993Z,1.40
2022-07-28T05:39:37.612Z,1.73
2022-07-28T05:42:04.350Z,1.50
2022-07-28T05:44:35.813Z,1.45
2022-07-28T05:47:04.428Z,1.73
2022-07-28T05:49:32.427Z,1.40
2022-07-28T05:51:58.953Z,1.27
2022-07-28T05:54:25.555Z,1.23
2022-07-28T05:56:52.769Z,1.45
2022-07-28T05:59:19.345Z,1.70
2022-07-28T06:01:46.123Z,1.40
2022-07-28T06:04:29.047Z,1.20
2022-07-28T06:06:57.344Z,1.95
2022-07-28T06:09:23.871Z,1.73
2022-07-28T06:11:50.814Z,1.30
2022-07-28T06:14:18.038Z,1.77
2022-07-28T06:16:45.098Z,1.52
2022-07-28T06:19:11.649Z,1.50
2022-07-28T06:21:38.217Z,1.48
2022-07-28T06:24:06.880Z,1.35
2022-07-28T06:26:34.555Z,1.50
2022-07-28T06:29:01.082Z,1.50
2022-07-28T06:31:27.704Z,1.70
2022-07-28T06:33:54.284Z,1.88
2022-07-28T06:36:20.878Z,1.42
2022-07-28T06:38:47.416Z,1.67
2022-07-28T06:41:15.501Z,1.60
2022-07-28T06:43:42.643Z,1.50
2022-07-28T06:46:09.236Z,1.48
2022-07-28T06:48:39.439Z,1.40
2022-07-28T06:51:06.240Z,1.63
2022-07-28T06:53:33.564Z,1.30
2022-07-28T06:56:00.655Z,1.50
2022-07-28T06:58:28.555Z,2.25
2022-07-28T07:00:55.097Z,1.38
2022-07-28T07:03:21.725Z,1.42
2022-07-28T07:05:49.054Z,1.40
2022-07-28T07:08:20.802Z,1.23
2022-07-28T07:10:47.443Z,1.10
2022-07-28T07:13:14.097Z,1.30
2022-07-28T07:15:42.008Z,1.10
2022-07-28T07:18:09.456Z,1.00
2022-07-28T07:20:35.981Z,1.20
2022-07-28T07:23:02.502Z,1.65
2022-07-28T07:25:29.045Z,1.45
2022-07-28T07:27:55.549Z,1.30
2022-07-28T07:30:22.205Z,1.30
2022-07-28T07:32:50.101Z,1.20
2022-07-28T07:35:17.070Z,1.23
2022-07-28T07:37:43.612Z,1.00
2022-07-28T07:40:10.603Z,1.27
2022-07-28T07:42:37.649Z,0.88
2022-07-28T07:45:04.603Z,1.33
2022-07-28T07:47:31.254Z,1.17
2022-07-28T07:50:01.827Z,0.80
2022-07-28T07:52:30.547Z,1.00
2022-07-28T07:54:57.058Z,0.73
2022-07-28T07:57:23.548Z,0.77
2022-07-28T07:59:50.060Z,0.70
2022-07-28T08:02:16.622Z,0.82
2022-07-28T08:04:43.157Z,1.05
2022-07-28T08:07:11.167Z,0.70
2022-07-28T08:09:38.590Z,0.80
2022-07-28T08:12:05.608Z,0.70
2022-07-28T08:14:32.169Z,0.90
2022-07-28T08:16:59.574Z,0.63
2022-07-28T08:19:26.601Z,0.60
2022-07-28T08:21:53.194Z,0.75
2022-07-28T08:24:29.032Z,0.80
2022-07-28T08:26:59.709Z,0.80
2022-07-28T08:29:26.366Z,0.80
2022-07-28T08:31:52.963Z,1.10
2022-07-28T08:34:26.177Z,0.80
2022-07-28T08:36:58.503Z,0.50
2022-07-28T08:39:26.404Z,0.80
2022-07-28T08:41:55.639Z,0.60
2022-07-28T08:44:27.572Z,0.70
2022-07-28T08:46:54.532Z,0.60
2022-07-28T08:49:21.270Z,0.73
2022-07-28T08:51:48.680Z,0.60
2022-07-28T08:54:17.082Z,0.80
2022-07-28T08:56:48.061Z,0.70
2022-07-28T08:59:14.967Z,0.82
2022-07-28T09:01:41.870Z,0.80
2022-07-28T09:04:09.075Z,0.68
2022-07-28T09:06:41.984Z,0.60
2022-07-28T09:09:09.749Z,0.65
2022-07-28T09:11:36.387Z,0.70
2022-07-28T09:14:04.446Z,0.70
2022-07-28T09:16:31.142Z,0.80
2022-07-28T09:18:57.683Z,0.80
2022-07-28T09:21:24.578Z,0.75
2022-07-28T09:23:51.149Z,0.68
2022-07-28T09:26:17.827Z,0.93
2022-07-28T09:28:48.606Z,0.75
2022-07-28T09:31:17.459Z,0.80
2022-07-28T09:33:53.123Z,0.77
2022-07-28T09:36:19.883Z,0.90
2022-07-28T09:38:47.140Z,0.85
2022-07-28T09:41:14.653Z,0.85
2022-07-28T09:43:45.096Z,0.90
2022-07-28T09:46:12.452Z,1.00
2022-07-28T09:48:50.196Z,1.00
2022-07-28T09:51:17.863Z,0.80
2022-07-28T09:53:45.025Z,1.33
2022-07-28T09:56:12.887Z,0.90
2022-07-28T09:58:39.879Z,1.10
2022-07-28T10:01:08.389Z,0.90
2022-07-28T10:03:35.658Z,0.80
2022-07-28T10:06:08.551Z,0.95
2022-07-28T10:08:42.243Z,0.90
2022-07-28T10:11:08.862Z,1.13
2022-07-28T10:13:35.502Z,0.77
2022-07-28T10:16:11.167Z,0.80
2022-07-28T10:18:38.306Z,0.82
2022-07-28T10:21:07.408Z,0.88
2022-07-28T10:23:34.221Z,0.90
2022-07-28T10:26:01.453Z,0.88
2022-07-28T10:28:29.138Z,0.90
2022-07-28T10:31:01.128Z,0.85
2022-07-28T10:33:29.624Z,0.60
2022-07-28T10:35:56.493Z,0.85
2022-07-28T10:38:26.195Z,0.88
2022-07-28T10:40:53.725Z,1.00
2022-07-28T10:43:20.830Z,0.90
2022-07-28T10:46:05.002Z,0.90
2022-07-28T10:48:32.596Z,1.48
2022-07-28T10:50:59.483Z,0.85
2022-07-28T10:53:34.349Z,0.70
2022-07-28T10:56:07.202Z,0.82
2022-07-28T10:58:38.862Z,0.90
2022-07-28T11:01:10.616Z,0.90
2022-07-28T11:03:42.843Z,0.90
2022-07-28T11:06:26.341Z,0.57
2022-07-28T11:08:54.479Z,1.08
2022-07-28T11:11:39.406Z,1.00
2022-07-28T11:14:27.928Z,1.00
2022-07-28T11:17:11.252Z,0.80
2022-07-28T11:20:25.221Z,0.95
2022-07-28T11:22:40.008Z,0.73
2022-07-28T11:25:18.554Z,0.70
2022-07-28T11:28:00.561Z,0.90
2022-07-28T11:30:45.668Z,0.60
2022-07-28T11:33:12.874Z,0.80
2022-07-28T11:35:53.227Z,0.80
2022-07-28T11:38:19.864Z,0.88
2022-07-28T11:40:48.468Z,0.80
2022-07-28T11:43:42.230Z,0.70
2022-07-28T11:46:32.599Z,0.70
2022-07-28T11:49:16.720Z,0.80
2022-07-28T11:51:58.281Z,0.80
2022-07-28T11:54:25.545Z,0.70
2022-07-28T11:56:58.677Z,0.85
2022-07-28T11:59:25.213Z,0.80
2022-07-28T12:02:03.520Z,1.08
2022-07-28T12:04:30.165Z,0.93
2022-07-28T12:06:56.781Z,0.70
2022-07-28T12:09:35.895Z,0.73
2022-07-28T12:12:09.862Z,0.80
2022-07-28T12:14:40.445Z,0.65
2022-07-28T12:17:07.457Z,0.77
2022-07-28T12:19:34.029Z,0.95
2022-07-28T12:22:03.228Z,0.60
2022-07-28T12:24:30.652Z,0.50
2022-07-28T12:26:58.112Z,0.98
2022-07-28T12:29:35.774Z,0.80
2022-07-28T12:32:04.901Z,0.63
2022-07-28T12:34:32.694Z,0.68
2022-07-28T12:37:01.957Z,1.35
2022-07-28T12:39:29.225Z,0.90
2022-07-28T12:42:05.323Z,0.80
2022-07-28T12:44:34.529Z,0.60
2022-07-28T12:47:01.160Z,0.63
2022-07-28T12:49:27.893Z,1.10
2022-07-28T12:51:54.823Z,0.90
2022-07-28T12:54:33.977Z,0.80
2022-07-28T12:57:00.493Z,0.70
2022-07-28T12:59:31.400Z,0.70
2022-07-28T13:02:00.178Z,0.82
2022-07-28T13:04:41.361Z,0.65
2022-07-28T13:07:12.861Z,0.80
2022-07-28T13:09:46.336Z,0.90
2022-07-28T13:12:15.880Z,0.40
2022-07-28T13:14:43.695Z,0.98
2022-07-28T13:17:12.144Z,0.60
2022-07-28T13:19:38.664Z,0.63
2022-07-28T13:22:08.835Z,0.82
2022-07-28T13:24:35.936Z,0.70
2022-07-28T13:27:03.170Z,0.60
2022-07-28T13:29:32.576Z,0.90
2022-07-28T13:31:59.190Z,0.70
2022-07-28T13:34:27.122Z,0.60
2022-07-28T13:36:54.001Z,0.73
2022-07-28T13:39:20.528Z,0.70
2022-07-28T13:41:56.704Z,0.52
2022-07-28T13:44:25.403Z,0.98
2022-07-28T13:46:52.055Z,0.80
2022-07-28T13:49:21.345Z,0.73
2022-07-28T13:51:51.174Z,0.80
2022-07-28T13:54:18.554Z,0.88
2022-07-28T13:56:45.667Z,0.55
2022-07-28T13:59:13.706Z,0.60
2022-07-28T14:01:43.796Z,0.60
2022-07-28T14:04:17.607Z,0.70
2022-07-28T14:06:45.127Z,0.77
2022-07-28T14:09:18.237Z,0.70
2022-07-28T14:11:49.400Z,0.70
2022-07-28T14:14:20.147Z,0.80
2022-07-28T14:16:47.854Z,0.65
2022-07-28T14:19:16.582Z,0.70
2022-07-28T14:21:50.271Z,0.68
2022-07-28T14:24:18.325Z,0.60
2022-07-28T14:26:44.973Z,0.70
2022-07-28T14:29:11.895Z,0.88
2022-07-28T14:31:38.621Z,1.08
2022-07-28T14:34:05.208Z,0.60
2022-07-28T14:36:31.715Z,0.52
2022-07-28T14:38:58.340Z,0.70
2022-07-28T14:41:26.276Z,0.63
2022-07-28T14:43:53.040Z,0.73
2022-07-28T14:46:21.870Z,0.50
2022-07-28T14:48:48.709Z,0.70
2022-07-28T14:51:15.280Z,0.52
2022-07-28T14:53:49.928Z,0.77
2022-07-28T14:56:18.450Z,1.00
2022-07-28T14:58:46.320Z,0.50
2022-07-28T15:01:12.883Z,0.80
2022-07-28T15:03:43.265Z,0.57
2022-07-28T15:06:10.624Z,0.73
2022-07-28T15:08:37.156Z,0.60
2022-07-28T15:11:03.666Z,0.82
2022-07-28T15:13:30.212Z,0.60
2022-07-28T15:15:59.934Z,0.73
2022-07-28T15:18:26.748Z,1.10
2022-07-28T15:20:55.984Z,0.90
2022-07-28T15:23:22.974Z,0.57
2022-07-28T15:25:49.526Z,0.60
2022-07-28T15:28:17.809Z,0.50
2022-07-28T15:30:51.706Z,0.70
2022-07-28T15:33:20.685Z,0.80
2022-07-28T15:35:56.510Z,0.80
2022-07-28T15:38:25.766Z,0.70
2022-07-28T15:40:52.340Z,0.57
2022-07-28T15:43:19.608Z,0.80
2022-07-28T15:45:50.532Z,0.70
2022-07-28T15:48:17.242Z,0.70
2022-07-28T15:50:48.625Z,1.13
2022-07-28T15:53:15.376Z,0.60
2022-07-28T15:55:41.966Z,0.70
2022-07-28T15:58:08.512Z,0.63
2022-07-28T16:00:35.184Z,0.68
2022-07-28T16:03:01.917Z,1.08
2022-07-28T16:05:28.560Z,0.80
2022-07-28T16:08:00.333Z,0.70
2022-07-28T16:10:27.562Z,0.80
2022-07-28T16:12:55.981Z,0.80
2022-07-28T16:15:24.928Z,0.80
2022-07-28T16:17:51.486Z,0.73
2022-07-28T16:20:18.117Z,0.88
2022-07-28T16:22:44.641Z,0.80
2022-07-28T16:25:16.823Z,0.70
2022-07-28T16:27:43.498Z,0.65
2022-07-28T16:30:11.603Z,0.80
2022-07-28T16:32:38.309Z,0.65
2022-07-28T16:35:05.120Z,0.80
2022-07-28T16:37:31.823Z,0.80
2022-07-28T16:39:58.604Z,0.50
2022-07-28T16:42:26.493Z,0.90
2022-07-28T16:44:52.996Z,0.60
2022-07-28T16:47:19.574Z,0.80
2022-07-28T16:49:46.503Z,0.50
2022-07-28T16:52:13.716Z,0.68
2022-07-28T16:54:40.257Z,0.50
2022-07-28T16:57:07.378Z,0.70
2022-07-28T16:59:37.682Z,0.60
2022-07-28T17:02:15.317Z,0.63
2022-07-28T17:04:42.144Z,0.75
2022-07-28T17:07:08.803Z,0.60
2022-07-28T17:09:35.448Z,0.80
2022-07-28T17:12:01.924Z,0.75
2022-07-28T17:14:28.459Z,0.90
2022-07-28T17:16:56.329Z,0.80
2022-07-28T17:19:22.864Z,0.80
2022-07-28T17:21:49.462Z,0.60
2022-07-28T17:24:16.267Z,0.60
2022-07-28T17:27:35.309Z,0.60
2022-07-28T17:29:30.037Z,0.47
2022-07-28T17:31:57.911Z,0.90
2022-07-28T17:34:24.629Z,0.80
2022-07-28T17:36:51.239Z,0.60
2022-07-28T17:39:17.779Z,0.80
2022-07-28T17:41:44.294Z,0.60
2022-07-28T17:44:10.823Z,0.70
2022-07-28T17:46:37.908Z,0.73
2022-07-28T17:49:08.007Z,0.70
2022-07-28T17:51:34.704Z,0.82
2022-07-28T17:54:01.192Z,0.77
2022-07-28T17:56:27.778Z,0.65
2022-07-28T17:58:55.297Z,0.70
2022-07-28T18:01:21.961Z,0.75
2022-07-28T18:03:57.648Z,0.60
2022-07-28T18:06:28.829Z,0.60
2022-07-28T18:08:55.372Z,0.80
2022-07-28T18:11:21.897Z,0.77
2022-07-28T18:14:04.157Z,0.63
2022-07-28T18:16:31.866Z,0.73
2022-07-28T18:18:58.389Z,0.73
2022-07-28T18:21:26.536Z,0.60
2022-07-28T18:23:54.950Z,0.60
2022-07-28T18:26:22.010Z,0.80
2022-07-28T18:28:48.750Z,0.70
2022-07-28T18:31:15.414Z,0.90
2022-07-28T18:33:41.998Z,1.02
2022-07-28T18:36:08.628Z,1.00
2022-07-28T18:38:35.122Z,0.70
2022-07-28T18:41:03.015Z,0.90
2022-07-28T18:43:29.560Z,0.80
2022-07-28T18:45:56.204Z,1.02
2022-07-28T18:48:25.438Z,0.60
2022-07-28T18:50:52.228Z,0.60
2022-07-28T18:53:18.736Z,0.60
2022-07-28T18:55:45.283Z,1.00
2022-07-28T18:58:13.206Z,1.05
2022-07-28T19:00:39.731Z,0.70
2022-07-28T19:03:06.361Z,0.80
2022-07-28T19:05:36.930Z,0.73
2022-07-28T19:08:04.000Z,0.70
2022-07-28T19:10:30.666Z,1.00
2022-07-28T19:12:57.241Z,0.80
2022-07-28T19:15:25.291Z,0.80
2022-07-28T19:18:11.006Z,0.70
2022-07-28T19:20:38.688Z,0.60
2022-07-28T19:23:05.709Z,0.63
2022-07-28T19:25:32.472Z,0.60
2022-07-28T19:27:59.208Z,0.70
2022-07-28T19:30:28.236Z,0.80
2022-07-28T19:32:54.711Z,0.63
2022-07-28T19:35:21.290Z,0.80
2022-07-28T19:37:48.608Z,0.70
2022-07-28T19:40:15.123Z,0.70
2022-07-28T19:42:41.713Z,0.80
2022-07-28T19:45:08.738Z,0.65
2022-07-28T19:47:37.145Z,0.77
2022-07-28T19:50:05.113Z,0.60
2022-07-28T19:52:31.784Z,1.00
2022-07-28T19:54:58.266Z,0.77
2022-07-28T19:57:25.333Z,0.75
2022-07-28T19:59:51.836Z,0.70
2022-07-28T20:02:18.369Z,0.85
2022-07-28T20:04:46.461Z,0.55
2022-07-28T20:07:12.998Z,0.90
2022-07-28T20:09:39.844Z,0.88
2022-07-28T20:12:07.878Z,0.85
2022-07-28T20:14:35.852Z,0.73
2022-07-28T20:17:02.488Z,0.90
2022-07-28T20:19:30.186Z,0.90
2022-07-28T20:21:58.072Z,0.73
2022-07-28T20:24:24.779Z,0.90
2022-07-28T20:26:51.275Z,1.10
2022-07-28T20:29:18.145Z,1.27
2022-07-28T20:31:44.694Z,0.80
2022-07-28T20:34:12.990Z,0.85
2022-07-28T20:36:42.830Z,0.90
2022-07-28T20:39:34.313Z,0.80
2022-07-28T20:41:57.386Z,0.80
2022-07-28T20:44:29.190Z,0.77
2022-07-28T20:46:58.452Z,1.00
2022-07-28T20:49:25.037Z,1.10
2022-07-28T20:51:51.606Z,1.08
2022-07-28T20:54:19.720Z,1.20
2022-07-28T20:56:46.536Z,1.10
2022-07-28T20:59:13.391Z,1.30
2022-07-28T21:01:39.998Z,1.20
2022-07-28T21:04:06.537Z,1.40
2022-07-28T21:06:37.916Z,1.40
2022-07-28T21:09:05.391Z,1.45
2022-07-28T21:11:35.103Z,1.30
2022-07-28T21:14:02.258Z,1.20
2022-07-28T21:16:28.899Z,1.05
2022-07-28T21:18:55.594Z,1.30
2022-07-28T21:21:22.243Z,1.20
2022-07-28T21:23:49.423Z,1.80
2022-07-28T21:26:16.236Z,1.42
2022-07-28T21:29:02.793Z,1.48
2022-07-28T21:31:29.285Z,1.23
2022-07-28T21:33:55.791Z,1.15
2022-07-28T21:36:22.811Z,0.82
2022-07-28T21:38:49.322Z,0.93
2022-07-28T21:41:16.387Z,0.80
2022-07-28T21:43:44.366Z,0.88
2022-07-28T21:46:11.763Z,1.00
2022-07-28T21:48:38.410Z,0.98
2022-07-28T21:51:05.007Z,0.90
2022-07-28T21:53:46.061Z,1.10
2022-07-28T21:56:13.390Z,0.90
2022-07-28T21:58:40.188Z,0.80
2022-07-28T22:01:08.308Z,0.85
2022-07-28T22:03:37.356Z,1.00
2022-07-28T22:06:04.058Z,0.98
2022-07-28T22:08:30.642Z,0.90
2022-07-28T22:10:57.174Z,1.20
2022-07-28T22:13:23.778Z,1.10
2022-07-28T22:15:50.366Z,1.10
2022-07-28T22:18:18.206Z,0.90
2022-07-28T22:20:46.726Z,1.02
2022-07-28T22:23:29.693Z,1.20
2022-07-28T22:25:56.638Z,1.20
2022-07-28T22:28:30.098Z,1.48
2022-07-28T22:30:56.925Z,1.10
2022-07-28T22:33:24.791Z,1.00
2022-07-28T22:35:51.498Z,1.15
2022-07-28T22:38:18.123Z,1.30
2022-07-28T22:40:44.725Z,1.00
2022-07-28T22:43:11.242Z,1.15
2022-07-28T22:45:50.487Z,1.00
2022-07-28T22:48:18.043Z,1.23
2022-07-28T22:50:45.974Z,1.40
2022-07-28T22:53:12.587Z,0.90
2022-07-28T22:58:23.831Z,1.10
2022-07-28T23:00:51.624Z,1.10
2022-07-28T23:03:18.698Z,1.00
2022-07-28T23:05:46.697Z,0.90
2022-07-28T23:08:13.294Z,0.90
2022-07-28T23:10:39.886Z,0.90
2022-07-28T23:13:06.669Z,1.10
2022-07-28T23:15:39.533Z,1.05
2022-07-28T23:18:08.138Z,1.30
2022-07-28T23:20:34.689Z,1.10
2022-07-28T23:23:02.633Z,1.05
2022-07-28T23:25:29.200Z,1.10
2022-07-28T23:27:55.780Z,1.02
2022-07-28T23:30:22.314Z,1.00
2022-07-28T23:32:52.624Z,0.90
2022-07-28T23:35:19.322Z,0.95
2022-07-28T23:37:45.897Z,0.80
2022-07-28T23:40:14.037Z,1.10
2022-07-28T23:42:40.610Z,1.17
2022-07-28T23:45:07.638Z,0.90
2022-07-28T23:47:34.510Z,0.82
2022-07-28T23:50:01.069Z,1.20
2022-07-28T23:52:27.972Z,1.20
2022-07-28T23:54:54.525Z,1.13
2022-07-28T23:57:22.492Z,1.35
2022-07-28T23:59:49.017Z,0.90
